sensor_id;sensor_type;location;lat;lon;timestamp;P1;durP1;ratioP1;P2;durP2;ratioP2
7875;SDS011;69649;53.712;9.680;2023-04-29T00:01:30;12.67;;;8.10;;
7875;SDS011;69649;53.712;9.680;2023-04-29T00:03:56;14.27;;;8.03;;
7875;SDS011;69649;53.712;9.680;2023-04-29T00:06:22;11.83;;;8.30;;
7875;SDS011;69649;53.712;9.680;2023-04-29T00:08:48;12.27;;;8.37;;
7875;SDS011;69649;53.712;9.680;2023-04-29T00:11:16;14.13;;;9.13;;
7875;SDS011;69649;53.712;9.680;2023-04-29T00:13:42;13.13;;;8.47;;
7875;SDS011;69649;53.712;9.680;2023-04-29T00:16:07;11.90;;;8.10;;
7875;SDS011;69649;53.712;9.680;2023-04-29T00:18:36;14.90;;;8.27;;
7875;SDS011;69649;53.712;9.680;2023-04-29T00:21:02;11.13;;;7.53;;
7875;SDS011;69649;53.712;9.680;2023-04-29T00:23:30;12.47;;;7.90;;
7875;SDS011;69649;53.712;9.680;2023-04-29T00:25:57;12.07;;;8.77;;
7875;SDS011;69649;53.712;9.680;2023-04-29T00:28:23;15.37;;;8.10;;
7875;SDS011;69649;53.712;9.680;2023-04-29T00:30:49;12.80;;;8.67;;
7875;SDS011;69649;53.712;9.680;2023-04-29T00:33:15;12.37;;;7.30;;
7875;SDS011;69649;53.712;9.680;2023-04-29T00:35:41;11.33;;;7.90;;
7875;SDS011;69649;53.712;9.680;2023-04-29T00:38:07;13.10;;;8.80;;
7875;SDS011;69649;53.712;9.680;2023-04-29T00:40:32;11.43;;;8.43;;
7875;SDS011;69649;53.712;9.680;2023-04-29T00:42:58;9.70;;;8.03;;
7875;SDS011;69649;53.712;9.680;2023-04-29T00:45:24;10.60;;;8.00;;
7875;SDS011;69649;53.712;9.680;2023-04-29T00:47:51;12.87;;;8.57;;
7875;SDS011;69649;53.712;9.680;2023-04-29T00:50:17;12.43;;;8.60;;
7875;SDS011;69649;53.712;9.680;2023-04-29T00:52:43;14.03;;;8.20;;
7875;SDS011;69649;53.712;9.680;2023-04-29T00:55:10;10.80;;;8.03;;
7875;SDS011;69649;53.712;9.680;2023-04-29T00:57:37;10.70;;;8.23;;
7875;SDS011;69649;53.712;9.680;2023-04-29T01:00:04;12.30;;;8.70;;
7875;SDS011;69649;53.712;9.680;2023-04-29T01:02:30;12.57;;;8.40;;
7875;SDS011;69649;53.712;9.680;2023-04-29T01:04:58;15.20;;;8.70;;
7875;SDS011;69649;53.712;9.680;2023-04-29T01:10:28;15.97;;;9.33;;
7875;SDS011;69649;53.712;9.680;2023-04-29T01:13:16;9.80;;;8.13;;
7875;SDS011;69649;53.712;9.680;2023-04-29T01:15:46;13.17;;;8.87;;
7875;SDS011;69649;53.712;9.680;2023-04-29T01:18:29;11.87;;;8.13;;
7875;SDS011;69649;53.712;9.680;2023-04-29T01:20:56;11.73;;;8.47;;
7875;SDS011;69649;53.712;9.680;2023-04-29T01:23:27;14.20;;;9.07;;
7875;SDS011;69649;53.712;9.680;2023-04-29T01:25:53;15.03;;;8.37;;
7875;SDS011;69649;53.712;9.680;2023-04-29T01:28:24;15.33;;;8.70;;
7875;SDS011;69649;53.712;9.680;2023-04-29T01:31:14;11.50;;;8.60;;
7875;SDS011;69649;53.712;9.680;2023-04-29T01:45:27;12.30;;;8.33;;
7875;SDS011;69649;53.712;9.680;2023-04-29T01:47:55;14.37;;;9.67;;
7875;SDS011;69649;53.712;9.680;2023-04-29T01:50:23;15.13;;;9.50;;
7875;SDS011;69649;53.712;9.680;2023-04-29T01:52:49;17.67;;;10.47;;
7875;SDS011;69649;53.712;9.680;2023-04-29T01:55:15;13.37;;;9.33;;
7875;SDS011;69649;53.712;9.680;2023-04-29T01:57:41;17.70;;;9.93;;
7875;SDS011;69649;53.712;9.680;2023-04-29T02:00:08;12.33;;;8.63;;
7875;SDS011;69649;53.712;9.680;2023-04-29T02:02:36;15.13;;;9.80;;
7875;SDS011;69649;53.712;9.680;2023-04-29T02:05:02;13.43;;;10.10;;
7875;SDS011;69649;53.712;9.680;2023-04-29T02:07:28;15.10;;;9.73;;
7875;SDS011;69649;53.712;9.680;2023-04-29T02:09:53;17.97;;;10.40;;
7875;SDS011;69649;53.712;9.680;2023-04-29T02:12:19;15.20;;;9.30;;
7875;SDS011;69649;53.712;9.680;2023-04-29T02:14:45;14.97;;;9.77;;
7875;SDS011;69649;53.712;9.680;2023-04-29T02:17:12;14.17;;;9.70;;
7875;SDS011;69649;53.712;9.680;2023-04-29T02:19:38;14.50;;;9.53;;
7875;SDS011;69649;53.712;9.680;2023-04-29T02:22:04;14.77;;;9.63;;
7875;SDS011;69649;53.712;9.680;2023-04-29T02:24:30;13.33;;;9.97;;
7875;SDS011;69649;53.712;9.680;2023-04-29T02:26:56;15.53;;;10.17;;
7875;SDS011;69649;53.712;9.680;2023-04-29T02:29:23;11.80;;;9.40;;
7875;SDS011;69649;53.712;9.680;2023-04-29T02:31:51;14.30;;;10.80;;
7875;SDS011;69649;53.712;9.680;2023-04-29T02:34:16;19.67;;;10.17;;
7875;SDS011;69649;53.712;9.680;2023-04-29T02:36:42;16.83;;;9.90;;
7875;SDS011;69649;53.712;9.680;2023-04-29T02:39:08;14.73;;;9.73;;
7875;SDS011;69649;53.712;9.680;2023-04-29T02:41:34;16.53;;;10.17;;
7875;SDS011;69649;53.712;9.680;2023-04-29T02:44:00;14.90;;;9.80;;
7875;SDS011;69649;53.712;9.680;2023-04-29T02:46:25;19.23;;;10.33;;
7875;SDS011;69649;53.712;9.680;2023-04-29T02:48:51;16.50;;;10.13;;
7875;SDS011;69649;53.712;9.680;2023-04-29T02:51:17;15.57;;;10.33;;
7875;SDS011;69649;53.712;9.680;2023-04-29T02:53:43;16.17;;;10.70;;
7875;SDS011;69649;53.712;9.680;2023-04-29T02:56:08;13.33;;;10.57;;
7875;SDS011;69649;53.712;9.680;2023-04-29T02:58:34;17.93;;;11.63;;
7875;SDS011;69649;53.712;9.680;2023-04-29T03:01:00;15.47;;;11.73;;
7875;SDS011;69649;53.712;9.680;2023-04-29T03:03:26;20.27;;;12.20;;
7875;SDS011;69649;53.712;9.680;2023-04-29T03:05:51;15.67;;;11.10;;
7875;SDS011;69649;53.712;9.680;2023-04-29T03:08:17;14.60;;;10.97;;
7875;SDS011;69649;53.712;9.680;2023-04-29T03:10:43;14.10;;;10.50;;
7875;SDS011;69649;53.712;9.680;2023-04-29T03:13:09;18.57;;;11.60;;
7875;SDS011;69649;53.712;9.680;2023-04-29T03:15:35;16.23;;;10.70;;
7875;SDS011;69649;53.712;9.680;2023-04-29T03:18:01;15.83;;;10.53;;
7875;SDS011;69649;53.712;9.680;2023-04-29T03:20:29;15.83;;;10.60;;
7875;SDS011;69649;53.712;9.680;2023-04-29T03:22:54;14.27;;;10.43;;
7875;SDS011;69649;53.712;9.680;2023-04-29T03:25:20;16.83;;;11.17;;
7875;SDS011;69649;53.712;9.680;2023-04-29T03:27:46;16.83;;;11.47;;
7875;SDS011;69649;53.712;9.680;2023-04-29T03:30:12;18.03;;;12.27;;
7875;SDS011;69649;53.712;9.680;2023-04-29T03:32:37;15.97;;;10.33;;
7875;SDS011;69649;53.712;9.680;2023-04-29T03:35:03;17.60;;;11.60;;
7875;SDS011;69649;53.712;9.680;2023-04-29T03:37:30;13.70;;;10.73;;
7875;SDS011;69649;53.712;9.680;2023-04-29T03:39:55;18.60;;;12.13;;
7875;SDS011;69649;53.712;9.680;2023-04-29T03:42:21;17.43;;;10.60;;
7875;SDS011;69649;53.712;9.680;2023-04-29T03:44:47;16.63;;;11.63;;
7875;SDS011;69649;53.712;9.680;2023-04-29T03:47:13;15.23;;;11.30;;
7875;SDS011;69649;53.712;9.680;2023-04-29T03:49:38;16.60;;;11.33;;
7875;SDS011;69649;53.712;9.680;2023-04-29T03:52:04;19.13;;;11.60;;
7875;SDS011;69649;53.712;9.680;2023-04-29T03:54:30;18.87;;;11.80;;
7875;SDS011;69649;53.712;9.680;2023-04-29T03:56:56;17.10;;;10.57;;
7875;SDS011;69649;53.712;9.680;2023-04-29T03:59:22;15.10;;;11.17;;
7875;SDS011;69649;53.712;9.680;2023-04-29T04:01:48;19.73;;;11.93;;
7875;SDS011;69649;53.712;9.680;2023-04-29T04:04:14;20.33;;;11.23;;
7875;SDS011;69649;53.712;9.680;2023-04-29T04:06:40;19.07;;;12.23;;
7875;SDS011;69649;53.712;9.680;2023-04-29T04:09:05;15.77;;;11.40;;
7875;SDS011;69649;53.712;9.680;2023-04-29T04:11:32;16.10;;;11.00;;
7875;SDS011;69649;53.712;9.680;2023-04-29T04:13:58;18.37;;;11.40;;
7875;SDS011;69649;53.712;9.680;2023-04-29T04:16:25;16.60;;;11.00;;
7875;SDS011;69649;53.712;9.680;2023-04-29T04:18:51;16.50;;;12.20;;
7875;SDS011;69649;53.712;9.680;2023-04-29T04:21:16;17.97;;;11.93;;
7875;SDS011;69649;53.712;9.680;2023-04-29T04:23:42;16.43;;;10.80;;
7875;SDS011;69649;53.712;9.680;2023-04-29T04:26:08;15.57;;;10.60;;
7875;SDS011;69649;53.712;9.680;2023-04-29T04:28:34;16.17;;;11.03;;
7875;SDS011;69649;53.712;9.680;2023-04-29T04:31:00;16.73;;;11.93;;
7875;SDS011;69649;53.712;9.680;2023-04-29T04:33:25;20.30;;;11.13;;
7875;SDS011;69649;53.712;9.680;2023-04-29T04:35:51;16.57;;;10.80;;
7875;SDS011;69649;53.712;9.680;2023-04-29T04:38:17;22.50;;;11.33;;
7875;SDS011;69649;53.712;9.680;2023-04-29T04:40:43;17.00;;;10.23;;
7875;SDS011;69649;53.712;9.680;2023-04-29T04:43:09;16.87;;;11.87;;
7875;SDS011;69649;53.712;9.680;2023-04-29T04:45:35;15.03;;;10.23;;
7875;SDS011;69649;53.712;9.680;2023-04-29T04:48:01;18.40;;;12.20;;
7875;SDS011;69649;53.712;9.680;2023-04-29T04:50:27;15.97;;;10.87;;
7875;SDS011;69649;53.712;9.680;2023-04-29T04:52:58;18.10;;;10.77;;
7875;SDS011;69649;53.712;9.680;2023-04-29T04:55:22;18.13;;;11.30;;
7875;SDS011;69649;53.712;9.680;2023-04-29T04:57:48;13.13;;;10.13;;
7875;SDS011;69649;53.712;9.680;2023-04-29T05:00:15;16.60;;;9.63;;
7875;SDS011;69649;53.712;9.680;2023-04-29T05:02:41;13.80;;;10.27;;
7875;SDS011;69649;53.712;9.680;2023-04-29T05:05:07;11.90;;;9.57;;
7875;SDS011;69649;53.712;9.680;2023-04-29T05:07:33;16.97;;;11.07;;
7875;SDS011;69649;53.712;9.680;2023-04-29T05:10:02;14.73;;;9.57;;
7875;SDS011;69649;53.712;9.680;2023-04-29T05:12:28;16.00;;;9.90;;
7875;SDS011;69649;53.712;9.680;2023-04-29T05:14:57;15.30;;;10.17;;
7875;SDS011;69649;53.712;9.680;2023-04-29T05:17:23;19.07;;;10.70;;
7875;SDS011;69649;53.712;9.680;2023-04-29T05:19:49;18.13;;;11.10;;
7875;SDS011;69649;53.712;9.680;2023-04-29T05:22:15;13.00;;;10.10;;
7875;SDS011;69649;53.712;9.680;2023-04-29T05:24:41;16.47;;;10.47;;
7875;SDS011;69649;53.712;9.680;2023-04-29T05:27:07;16.93;;;11.47;;
7875;SDS011;69649;53.712;9.680;2023-04-29T05:29:32;17.10;;;11.40;;
7875;SDS011;69649;53.712;9.680;2023-04-29T05:31:58;17.73;;;11.10;;
7875;SDS011;69649;53.712;9.680;2023-04-29T05:34:24;17.83;;;10.20;;
7875;SDS011;69649;53.712;9.680;2023-04-29T05:36:50;16.40;;;10.60;;
7875;SDS011;69649;53.712;9.680;2023-04-29T05:39:16;17.93;;;10.70;;
7875;SDS011;69649;53.712;9.680;2023-04-29T05:41:42;17.27;;;9.73;;
7875;SDS011;69649;53.712;9.680;2023-04-29T05:44:08;14.50;;;10.60;;
7875;SDS011;69649;53.712;9.680;2023-04-29T05:46:34;17.57;;;11.93;;
7875;SDS011;69649;53.712;9.680;2023-04-29T05:49:00;15.20;;;9.60;;
7875;SDS011;69649;53.712;9.680;2023-04-29T05:51:26;15.90;;;10.30;;
7875;SDS011;69649;53.712;9.680;2023-04-29T05:53:57;20.27;;;10.67;;
7875;SDS011;69649;53.712;9.680;2023-04-29T05:56:20;14.33;;;10.80;;
7875;SDS011;69649;53.712;9.680;2023-04-29T05:58:47;16.43;;;9.60;;
7875;SDS011;69649;53.712;9.680;2023-04-29T06:01:13;17.90;;;10.53;;
7875;SDS011;69649;53.712;9.680;2023-04-29T06:03:39;18.03;;;11.50;;
7875;SDS011;69649;53.712;9.680;2023-04-29T06:06:06;16.57;;;11.00;;
7875;SDS011;69649;53.712;9.680;2023-04-29T06:08:32;16.63;;;10.40;;
7875;SDS011;69649;53.712;9.680;2023-04-29T06:10:58;18.57;;;10.13;;
7875;SDS011;69649;53.712;9.680;2023-04-29T06:13:23;15.57;;;9.90;;
7875;SDS011;69649;53.712;9.680;2023-04-29T06:15:50;13.53;;;8.90;;
7875;SDS011;69649;53.712;9.680;2023-04-29T06:18:16;19.97;;;11.10;;
7875;SDS011;69649;53.712;9.680;2023-04-29T06:20:42;13.13;;;9.57;;
7875;SDS011;69649;53.712;9.680;2023-04-29T06:23:08;15.63;;;9.80;;
7875;SDS011;69649;53.712;9.680;2023-04-29T06:25:33;19.37;;;10.50;;
7875;SDS011;69649;53.712;9.680;2023-04-29T06:27:59;17.57;;;9.97;;
7875;SDS011;69649;53.712;9.680;2023-04-29T06:30:25;15.33;;;10.40;;
7875;SDS011;69649;53.712;9.680;2023-04-29T06:32:51;15.23;;;11.33;;
7875;SDS011;69649;53.712;9.680;2023-04-29T06:35:17;15.70;;;10.20;;
7875;SDS011;69649;53.712;9.680;2023-04-29T06:37:43;13.60;;;8.20;;
7875;SDS011;69649;53.712;9.680;2023-04-29T06:40:09;16.63;;;9.23;;
7875;SDS011;69649;53.712;9.680;2023-04-29T06:42:36;15.13;;;9.73;;
7875;SDS011;69649;53.712;9.680;2023-04-29T06:45:02;12.80;;;9.20;;
7875;SDS011;69649;53.712;9.680;2023-04-29T06:47:28;13.37;;;8.93;;
7875;SDS011;69649;53.712;9.680;2023-04-29T06:49:53;16.30;;;10.03;;
7875;SDS011;69649;53.712;9.680;2023-04-29T06:52:19;12.43;;;9.60;;
7875;SDS011;69649;53.712;9.680;2023-04-29T06:54:45;12.13;;;8.13;;
7875;SDS011;69649;53.712;9.680;2023-04-29T06:57:10;15.70;;;9.53;;
7875;SDS011;69649;53.712;9.680;2023-04-29T06:59:36;12.47;;;8.53;;
7875;SDS011;69649;53.712;9.680;2023-04-29T07:02:02;14.43;;;8.30;;
7875;SDS011;69649;53.712;9.680;2023-04-29T07:04:28;10.43;;;8.17;;
7875;SDS011;69649;53.712;9.680;2023-04-29T07:06:55;10.07;;;7.40;;
7875;SDS011;69649;53.712;9.680;2023-04-29T07:09:20;10.87;;;8.13;;
7875;SDS011;69649;53.712;9.680;2023-04-29T07:11:48;12.00;;;6.90;;
7875;SDS011;69649;53.712;9.680;2023-04-29T07:14:14;10.53;;;7.60;;
7875;SDS011;69649;53.712;9.680;2023-04-29T07:16:40;11.97;;;7.77;;
7875;SDS011;69649;53.712;9.680;2023-04-29T07:19:06;11.00;;;7.43;;
7875;SDS011;69649;53.712;9.680;2023-04-29T07:21:32;13.87;;;8.33;;
7875;SDS011;69649;53.712;9.680;2023-04-29T07:23:58;14.53;;;8.40;;
7875;SDS011;69649;53.712;9.680;2023-04-29T07:26:26;17.57;;;8.37;;
7875;SDS011;69649;53.712;9.680;2023-04-29T07:28:52;10.50;;;7.27;;
7875;SDS011;69649;53.712;9.680;2023-04-29T07:31:19;12.13;;;7.73;;
7875;SDS011;69649;53.712;9.680;2023-04-29T07:33:45;12.87;;;7.90;;
7875;SDS011;69649;53.712;9.680;2023-04-29T07:36:11;10.43;;;7.50;;
7875;SDS011;69649;53.712;9.680;2023-04-29T07:38:37;12.67;;;8.07;;
7875;SDS011;69649;53.712;9.680;2023-04-29T07:41:03;10.13;;;7.03;;
7875;SDS011;69649;53.712;9.680;2023-04-29T07:43:29;10.60;;;7.90;;
7875;SDS011;69649;53.712;9.680;2023-04-29T07:45:56;11.57;;;6.63;;
7875;SDS011;69649;53.712;9.680;2023-04-29T07:48:22;10.10;;;8.37;;
7875;SDS011;69649;53.712;9.680;2023-04-29T07:50:48;11.77;;;8.37;;
7875;SDS011;69649;53.712;9.680;2023-04-29T07:53:13;14.73;;;8.10;;
7875;SDS011;69649;53.712;9.680;2023-04-29T07:55:42;11.80;;;6.97;;
7875;SDS011;69649;53.712;9.680;2023-04-29T07:58:08;11.90;;;8.10;;
7875;SDS011;69649;53.712;9.680;2023-04-29T08:00:34;9.27;;;7.60;;
7875;SDS011;69649;53.712;9.680;2023-04-29T08:03:00;12.20;;;8.03;;
7875;SDS011;69649;53.712;9.680;2023-04-29T08:05:26;9.70;;;6.83;;
7875;SDS011;69649;53.712;9.680;2023-04-29T08:07:52;11.07;;;8.00;;
7875;SDS011;69649;53.712;9.680;2023-04-29T08:10:18;12.97;;;7.77;;
7875;SDS011;69649;53.712;9.680;2023-04-29T08:12:47;10.90;;;8.00;;
7875;SDS011;69649;53.712;9.680;2023-04-29T08:15:13;13.23;;;7.57;;
7875;SDS011;69649;53.712;9.680;2023-04-29T08:17:40;8.97;;;6.97;;
7875;SDS011;69649;53.712;9.680;2023-04-29T08:20:07;8.40;;;7.57;;
7875;SDS011;69649;53.712;9.680;2023-04-29T08:22:33;11.10;;;7.53;;
7875;SDS011;69649;53.712;9.680;2023-04-29T08:24:59;11.87;;;7.30;;
7875;SDS011;69649;53.712;9.680;2023-04-29T08:27:27;10.17;;;7.00;;
7875;SDS011;69649;53.712;9.680;2023-04-29T08:29:53;9.37;;;7.10;;
7875;SDS011;69649;53.712;9.680;2023-04-29T08:32:20;12.20;;;8.10;;
7875;SDS011;69649;53.712;9.680;2023-04-29T08:34:47;9.43;;;8.17;;
7875;SDS011;69649;53.712;9.680;2023-04-29T08:37:13;8.30;;;7.17;;
7875;SDS011;69649;53.712;9.680;2023-04-29T08:39:39;11.23;;;7.00;;
7875;SDS011;69649;53.712;9.680;2023-04-29T08:42:09;12.30;;;7.27;;
7875;SDS011;69649;53.712;9.680;2023-04-29T08:44:35;10.43;;;6.87;;
7875;SDS011;69649;53.712;9.680;2023-04-29T08:47:01;10.80;;;7.00;;
7875;SDS011;69649;53.712;9.680;2023-04-29T08:49:30;9.57;;;6.97;;
7875;SDS011;69649;53.712;9.680;2023-04-29T08:52:01;10.90;;;7.50;;
7875;SDS011;69649;53.712;9.680;2023-04-29T08:54:28;10.30;;;7.40;;
7875;SDS011;69649;53.712;9.680;2023-04-29T08:56:55;13.00;;;6.73;;
7875;SDS011;69649;53.712;9.680;2023-04-29T08:59:23;8.37;;;6.10;;
7875;SDS011;69649;53.712;9.680;2023-04-29T09:01:49;11.00;;;6.77;;
7875;SDS011;69649;53.712;9.680;2023-04-29T09:07:10;8.20;;;6.70;;
7875;SDS011;69649;53.712;9.680;2023-04-29T09:09:38;9.13;;;6.10;;
7875;SDS011;69649;53.712;9.680;2023-04-29T09:12:04;8.97;;;6.53;;
7875;SDS011;69649;53.712;9.680;2023-04-29T09:14:30;10.80;;;6.17;;
7875;SDS011;69649;53.712;9.680;2023-04-29T09:17:00;9.27;;;6.77;;
7875;SDS011;69649;53.712;9.680;2023-04-29T09:19:30;9.50;;;6.33;;
7875;SDS011;69649;53.712;9.680;2023-04-29T09:21:58;12.10;;;7.20;;
7875;SDS011;69649;53.712;9.680;2023-04-29T09:24:29;10.70;;;7.50;;
7875;SDS011;69649;53.712;9.680;2023-04-29T09:26:53;8.73;;;6.53;;
7875;SDS011;69649;53.712;9.680;2023-04-29T09:29:19;8.87;;;6.60;;
7875;SDS011;69649;53.712;9.680;2023-04-29T09:31:46;11.67;;;6.57;;
7875;SDS011;69649;53.712;9.680;2023-04-29T09:34:14;9.80;;;6.80;;
7875;SDS011;69649;53.712;9.680;2023-04-29T09:36:44;10.53;;;7.10;;
7875;SDS011;69649;53.712;9.680;2023-04-29T09:39:22;11.70;;;7.13;;
7875;SDS011;69649;53.712;9.680;2023-04-29T09:44:22;14.10;;;9.20;;
7875;SDS011;69649;53.712;9.680;2023-04-29T09:46:57;8.87;;;6.90;;
7875;SDS011;69649;53.712;9.680;2023-04-29T09:49:23;10.50;;;7.53;;
7875;SDS011;69649;53.712;9.680;2023-04-29T09:51:51;10.23;;;7.93;;
7875;SDS011;69649;53.712;9.680;2023-04-29T09:54:22;10.83;;;7.07;;
7875;SDS011;69649;53.712;9.680;2023-04-29T09:56:50;10.47;;;6.93;;
7875;SDS011;69649;53.712;9.680;2023-04-29T09:59:20;14.97;;;8.90;;
7875;SDS011;69649;53.712;9.680;2023-04-29T10:01:48;10.87;;;6.70;;
7875;SDS011;69649;53.712;9.680;2023-04-29T10:04:16;8.27;;;7.47;;
7875;SDS011;69649;53.712;9.680;2023-04-29T10:06:50;8.80;;;7.10;;
7875;SDS011;69649;53.712;9.680;2023-04-29T10:09:18;8.83;;;6.97;;
7875;SDS011;69649;53.712;9.680;2023-04-29T10:11:50;12.90;;;7.30;;
7875;SDS011;69649;53.712;9.680;2023-04-29T10:14:17;12.40;;;7.90;;
7875;SDS011;69649;53.712;9.680;2023-04-29T10:16:45;10.83;;;7.33;;
7875;SDS011;69649;53.712;9.680;2023-04-29T10:19:27;10.20;;;7.77;;
7875;SDS011;69649;53.712;9.680;2023-04-29T10:21:59;10.93;;;6.90;;
7875;SDS011;69649;53.712;9.680;2023-04-29T10:24:27;10.87;;;8.50;;
7875;SDS011;69649;53.712;9.680;2023-04-29T10:26:53;13.83;;;7.70;;
7875;SDS011;69649;53.712;9.680;2023-04-29T10:29:21;13.03;;;7.80;;
7875;SDS011;69649;53.712;9.680;2023-04-29T10:31:49;9.83;;;6.60;;
7875;SDS011;69649;53.712;9.680;2023-04-29T10:34:16;10.30;;;6.73;;
7875;SDS011;69649;53.712;9.680;2023-04-29T10:36:42;9.73;;;7.07;;
7875;SDS011;69649;53.712;9.680;2023-04-29T10:39:11;9.20;;;6.43;;
7875;SDS011;69649;53.712;9.680;2023-04-29T10:41:43;12.37;;;7.30;;
7875;SDS011;69649;53.712;9.680;2023-04-29T10:44:13;7.87;;;6.47;;
7875;SDS011;69649;53.712;9.680;2023-04-29T10:46:39;10.23;;;6.90;;
7875;SDS011;69649;53.712;9.680;2023-04-29T10:49:05;8.50;;;5.80;;
7875;SDS011;69649;53.712;9.680;2023-04-29T10:51:32;10.00;;;6.83;;
7875;SDS011;69649;53.712;9.680;2023-04-29T10:59:18;10.90;;;6.57;;
7875;SDS011;69649;53.712;9.680;2023-04-29T11:01:51;9.23;;;6.73;;
7875;SDS011;69649;53.712;9.680;2023-04-29T11:04:20;7.80;;;7.00;;
7875;SDS011;69649;53.712;9.680;2023-04-29T11:06:47;8.07;;;7.20;;
7875;SDS011;69649;53.712;9.680;2023-04-29T11:09:20;9.73;;;8.30;;
7875;SDS011;69649;53.712;9.680;2023-04-29T11:19:41;9.57;;;7.00;;
7875;SDS011;69649;53.712;9.680;2023-04-29T11:22:34;6.33;;;5.27;;
7875;SDS011;69649;53.712;9.680;2023-04-29T11:24:52;8.83;;;5.70;;
7875;SDS011;69649;53.712;9.680;2023-04-29T11:27:25;8.40;;;6.00;;
7875;SDS011;69649;53.712;9.680;2023-04-29T11:29:54;8.20;;;5.90;;
7875;SDS011;69649;53.712;9.680;2023-04-29T11:32:27;8.87;;;6.07;;
7875;SDS011;69649;53.712;9.680;2023-04-29T11:34:52;7.53;;;5.50;;
7875;SDS011;69649;53.712;9.680;2023-04-29T11:37:18;6.20;;;5.00;;
7875;SDS011;69649;53.712;9.680;2023-04-29T11:39:46;8.87;;;4.93;;
7875;SDS011;69649;53.712;9.680;2023-04-29T11:42:12;6.13;;;4.13;;
7875;SDS011;69649;53.712;9.680;2023-04-29T11:44:38;6.23;;;3.90;;
7875;SDS011;69649;53.712;9.680;2023-04-29T11:47:07;5.20;;;3.70;;
7875;SDS011;69649;53.712;9.680;2023-04-29T11:49:33;5.37;;;3.67;;
7875;SDS011;69649;53.712;9.680;2023-04-29T11:51:59;7.37;;;4.27;;
7875;SDS011;69649;53.712;9.680;2023-04-29T11:54:26;7.93;;;5.13;;
7875;SDS011;69649;53.712;9.680;2023-04-29T11:56:53;9.23;;;5.23;;
7875;SDS011;69649;53.712;9.680;2023-04-29T11:59:20;9.93;;;5.90;;
7875;SDS011;69649;53.712;9.680;2023-04-29T12:01:47;9.67;;;5.20;;
7875;SDS011;69649;53.712;9.680;2023-04-29T12:04:15;8.33;;;5.33;;
7875;SDS011;69649;53.712;9.680;2023-04-29T12:06:44;17.30;;;6.87;;
7875;SDS011;69649;53.712;9.680;2023-04-29T12:09:10;11.40;;;7.27;;
7875;SDS011;69649;53.712;9.680;2023-04-29T12:11:36;10.67;;;5.73;;
7875;SDS011;69649;53.712;9.680;2023-04-29T12:14:03;20.33;;;6.07;;
7875;SDS011;69649;53.712;9.680;2023-04-29T12:16:31;10.20;;;5.80;;
7875;SDS011;69649;53.712;9.680;2023-04-29T12:18:58;10.53;;;6.90;;
7875;SDS011;69649;53.712;9.680;2023-04-29T12:21:24;8.67;;;5.97;;
7875;SDS011;69649;53.712;9.680;2023-04-29T12:23:52;8.50;;;6.07;;
7875;SDS011;69649;53.712;9.680;2023-04-29T12:26:18;10.50;;;6.00;;
7875;SDS011;69649;53.712;9.680;2023-04-29T12:28:45;13.30;;;5.60;;
7875;SDS011;69649;53.712;9.680;2023-04-29T12:31:13;8.20;;;5.53;;
7875;SDS011;69649;53.712;9.680;2023-04-29T12:33:43;9.60;;;4.80;;
7875;SDS011;69649;53.712;9.680;2023-04-29T12:36:16;9.67;;;5.23;;
7875;SDS011;69649;53.712;9.680;2023-04-29T12:38:43;8.50;;;5.40;;
7875;SDS011;69649;53.712;9.680;2023-04-29T12:41:10;7.63;;;4.37;;
7875;SDS011;69649;53.712;9.680;2023-04-29T12:43:38;4.47;;;3.47;;
7875;SDS011;69649;53.712;9.680;2023-04-29T12:46:07;6.20;;;4.17;;
7875;SDS011;69649;53.712;9.680;2023-04-29T12:48:34;8.27;;;4.33;;
7875;SDS011;69649;53.712;9.680;2023-04-29T12:51:03;6.60;;;3.30;;
7875;SDS011;69649;53.712;9.680;2023-04-29T12:53:29;7.07;;;3.67;;
7875;SDS011;69649;53.712;9.680;2023-04-29T12:55:55;6.20;;;3.83;;
7875;SDS011;69649;53.712;9.680;2023-04-29T12:58:22;6.23;;;3.50;;
7875;SDS011;69649;53.712;9.680;2023-04-29T13:00:48;7.07;;;2.90;;
7875;SDS011;69649;53.712;9.680;2023-04-29T13:03:14;2.90;;;2.37;;
7875;SDS011;69649;53.712;9.680;2023-04-29T13:05:40;4.20;;;2.80;;
7875;SDS011;69649;53.712;9.680;2023-04-29T13:08:07;4.93;;;2.43;;
7875;SDS011;69649;53.712;9.680;2023-04-29T13:10:33;5.00;;;3.07;;
7875;SDS011;69649;53.712;9.680;2023-04-29T13:13:00;5.87;;;2.80;;
7875;SDS011;69649;53.712;9.680;2023-04-29T13:15:26;6.63;;;3.23;;
7875;SDS011;69649;53.712;9.680;2023-04-29T13:17:52;6.23;;;3.00;;
7875;SDS011;69649;53.712;9.680;2023-04-29T13:20:18;6.53;;;3.03;;
7875;SDS011;69649;53.712;9.680;2023-04-29T13:22:45;8.03;;;4.20;;
7875;SDS011;69649;53.712;9.680;2023-04-29T13:25:11;4.23;;;3.30;;
7875;SDS011;69649;53.712;9.680;2023-04-29T13:27:37;3.50;;;3.20;;
7875;SDS011;69649;53.712;9.680;2023-04-29T13:30:06;3.27;;;2.60;;
7875;SDS011;69649;53.712;9.680;2023-04-29T13:32:33;4.03;;;3.07;;
7875;SDS011;69649;53.712;9.680;2023-04-29T13:34:59;4.73;;;2.80;;
7875;SDS011;69649;53.712;9.680;2023-04-29T13:37:25;4.50;;;3.00;;
7875;SDS011;69649;53.712;9.680;2023-04-29T13:39:51;4.73;;;3.37;;
7875;SDS011;69649;53.712;9.680;2023-04-29T13:42:16;8.93;;;3.03;;
7875;SDS011;69649;53.712;9.680;2023-04-29T13:44:42;3.77;;;3.43;;
7875;SDS011;69649;53.712;9.680;2023-04-29T13:47:11;4.03;;;2.93;;
7875;SDS011;69649;53.712;9.680;2023-04-29T13:49:38;5.07;;;3.20;;
7875;SDS011;69649;53.712;9.680;2023-04-29T13:52:05;4.23;;;2.60;;
7875;SDS011;69649;53.712;9.680;2023-04-29T13:54:32;4.77;;;3.13;;
7875;SDS011;69649;53.712;9.680;2023-04-29T13:56:58;5.17;;;3.43;;
7875;SDS011;69649;53.712;9.680;2023-04-29T13:59:27;5.27;;;3.10;;
7875;SDS011;69649;53.712;9.680;2023-04-29T14:01:53;3.30;;;2.70;;
7875;SDS011;69649;53.712;9.680;2023-04-29T14:04:19;6.13;;;2.77;;
7875;SDS011;69649;53.712;9.680;2023-04-29T14:06:44;3.80;;;3.20;;
7875;SDS011;69649;53.712;9.680;2023-04-29T14:09:10;4.43;;;2.80;;
7875;SDS011;69649;53.712;9.680;2023-04-29T14:11:36;7.17;;;5.43;;
7875;SDS011;69649;53.712;9.680;2023-04-29T14:14:02;4.60;;;3.00;;
7875;SDS011;69649;53.712;9.680;2023-04-29T14:16:28;4.47;;;2.93;;
7875;SDS011;69649;53.712;9.680;2023-04-29T14:18:54;4.80;;;2.60;;
7875;SDS011;69649;53.712;9.680;2023-04-29T14:21:20;5.20;;;2.60;;
7875;SDS011;69649;53.712;9.680;2023-04-29T14:23:47;5.30;;;3.00;;
7875;SDS011;69649;53.712;9.680;2023-04-29T14:26:14;4.23;;;2.40;;
7875;SDS011;69649;53.712;9.680;2023-04-29T14:28:40;4.80;;;3.10;;
7875;SDS011;69649;53.712;9.680;2023-04-29T14:31:06;4.07;;;2.20;;
7875;SDS011;69649;53.712;9.680;2023-04-29T14:33:32;4.90;;;2.30;;
7875;SDS011;69649;53.712;9.680;2023-04-29T14:35:57;6.30;;;2.83;;
7875;SDS011;69649;53.712;9.680;2023-04-29T14:38:25;4.27;;;1.93;;
7875;SDS011;69649;53.712;9.680;2023-04-29T14:43:37;3.03;;;2.37;;
7875;SDS011;69649;53.712;9.680;2023-04-29T14:46:03;5.70;;;2.27;;
7875;SDS011;69649;53.712;9.680;2023-04-29T14:48:30;2.53;;;2.30;;
7875;SDS011;69649;53.712;9.680;2023-04-29T14:50:56;4.30;;;2.63;;
7875;SDS011;69649;53.712;9.680;2023-04-29T14:53:22;6.60;;;4.30;;
7875;SDS011;69649;53.712;9.680;2023-04-29T14:55:48;8.50;;;4.93;;
7875;SDS011;69649;53.712;9.680;2023-04-29T14:58:14;10.40;;;3.70;;
7875;SDS011;69649;53.712;9.680;2023-04-29T15:00:40;4.40;;;3.03;;
7875;SDS011;69649;53.712;9.680;2023-04-29T15:03:07;4.67;;;3.23;;
7875;SDS011;69649;53.712;9.680;2023-04-29T15:05:33;4.57;;;3.53;;
7875;SDS011;69649;53.712;9.680;2023-04-29T15:07:59;2.80;;;2.60;;
7875;SDS011;69649;53.712;9.680;2023-04-29T15:10:26;4.40;;;2.70;;
7875;SDS011;69649;53.712;9.680;2023-04-29T15:12:53;4.70;;;3.17;;
7875;SDS011;69649;53.712;9.680;2023-04-29T15:15:19;3.93;;;3.53;;
7875;SDS011;69649;53.712;9.680;2023-04-29T15:17:46;3.80;;;2.63;;
7875;SDS011;69649;53.712;9.680;2023-04-29T15:20:11;2.43;;;2.23;;
7875;SDS011;69649;53.712;9.680;2023-04-29T15:22:38;4.53;;;2.80;;